Robertsport/Cape Mount Airport

Jump to: basic info | weather | comments

Related pages: nearby airports | nearby navaids | notams | map

Basic information (top)

Codes: GLCM
Location: lon 6.800000, lat -11.367000, elev 10 ft / 3 m msl
Status: small_airport

Weather (top)

Current conditions for Roberts International Airport 69nm (128km) ESE (rec'd 2015/03/02 03:30Z):

GLRB 020330Z 00000KT 7000 SKC 23/22 Q1011 RMK BRVC

Airport forecast for Roberts International Airport 69nm (128km) ESE (rec'd 2015/03/01 12:51Z):

TAF GLRB 011000Z 0112/0218 22010KT 9999 BKN017 
     FM011300 23010KT 9999 SCT018 
      TEMPO 0119/0123 00000KT 9999 NSC

Latest comments (top)

No comments yet for Robertsport/Cape Mount Airport

More... (top)

See also NOTAMs and nearby airports and navaids, or visit the Robertsport/Cape Mount Airport page at the main OurAirports website..